Time;durP1;ratioP1;P1;durP2;ratioP2;P2;SDS_P1;SDS_P2;PMS_P1;PMS_P2;Temp;Humidity;BMP_temperature;BMP_pressure;BME280_temperature;BME280_humidity;BME280_pressure;Samples;Min_cycle;Max_cycle;Signal;HPM_P1;HPM_P2
2022/05/27 00:01:12;;;;;;;10.13;4.38;;;;;;;-145.18;100.00;60484.78;5033633;28;20079;-67
2022/05/27 00:03:37;;;;;;;12.97;5.10;;;;;;;-145.18;100.00;60484.78;5033385;28;20478;-68
2022/05/27 00:06:03;;;;;;;12.90;4.97;;;;;;;-145.18;100.00;60484.78;5036515;28;20021;-67
2022/05/27 00:08:28;;;;;;;12.60;5.07;;;;;;;-145.18;100.00;60484.78;5038435;28;20112;-67
2022/05/27 00:10:55;;;;;;;14.67;5.37;;;;;;;-145.18;100.00;60484.78;5053185;28;20384;-67
2022/05/27 00:13:21;;;;;;;13.77;5.07;;;;;;;-145.18;100.00;60484.78;5047487;28;20051;-68
2022/05/27 00:15:47;;;;;;;9.90;4.57;;;;;;;-145.18;100.00;60484.78;5052302;28;20048;-67
2022/05/27 00:18:12;;;;;;;11.23;5.15;;;;;;;-145.18;100.00;60484.78;5052094;28;20036;-67
2022/05/27 00:20:37;;;;;;;10.23;5.10;;;;;;;-145.18;100.00;60484.78;5051133;28;20024;-67
2022/05/27 00:23:03;;;;;;;13.13;5.97;;;;;;;-145.18;100.00;60484.78;5043256;28;20032;-67
2022/05/27 00:25:29;;;;;;;15.63;6.13;;;;;;;-145.18;100.00;60484.78;5047632;28;20056;-67
2022/05/27 00:27:54;;;;;;;15.60;5.40;;;;;;;-145.18;100.00;60484.78;5044613;28;20029;-68
2022/05/27 00:30:20;;;;;;;12.87;5.37;;;;;;;-145.18;100.00;60484.78;5051410;28;20111;-68
2022/05/27 00:32:45;;;;;;;12.07;5.60;;;;;;;-145.18;100.00;60484.78;5049737;28;20146;-68
2022/05/27 00:35:11;;;;;;;9.67;4.97;;;;;;;-145.18;100.00;60484.78;5051282;28;20500;-68
2022/05/27 00:37:37;;;;;;;11.10;6.10;;;;;;;-145.18;100.00;60484.78;5050191;28;20503;-67
2022/05/27 00:40:04;;;;;;;10.97;5.50;;;;;;;-145.18;100.00;60484.78;5042356;28;20033;-68
2022/05/27 00:42:30;;;;;;;10.30;5.10;;;;;;;-145.18;100.00;60484.78;5043838;28;20036;-68
2022/05/27 00:44:55;;;;;;;12.73;5.80;;;;;;;-145.18;100.00;60484.78;5038990;28;20022;-67
2022/05/27 00:47:23;;;;;;;13.83;6.83;;;;;;;-145.18;100.00;60484.78;5041106;28;20029;-67
2022/05/27 00:50:04;;;;;;;10.33;5.77;;;;;;;-145.18;100.00;60484.78;5032147;28;20026;-68
2022/05/27 00:52:34;;;;;;;13.83;6.67;;;;;;;-145.18;100.00;60484.78;5037122;28;20021;-68
2022/05/27 00:55:01;;;;;;;14.53;6.67;;;;;;;-145.18;100.00;60484.78;5043121;28;20033;-68
2022/05/27 00:57:40;;;;;;;12.77;7.17;;;;;;;-145.18;100.00;60484.78;5048579;28;20033;-69
2022/05/27 01:00:19;;;;;;;18.33;7.50;;;;;;;-145.18;100.00;60484.78;5038022;28;20492;-68
2022/05/27 01:02:44;;;;;;;15.40;7.53;;;;;;;-145.18;100.00;60484.78;5051364;28;20036;-68
2022/05/27 01:05:12;;;;;;;12.73;6.40;;;;;;;-145.18;100.00;60484.78;5052116;28;20416;-68
2022/05/27 01:07:38;;;;;;;17.93;8.47;;;;;;;-145.18;100.00;60484.78;5044575;28;20025;-68
2022/05/27 01:10:06;;;;;;;13.80;8.10;;;;;;;-145.18;100.00;60484.78;5049490;28;20366;-69
2022/05/27 01:12:41;;;;;;;17.90;9.03;;;;;;;-145.18;100.00;60484.78;5050434;28;20488;-69
2022/05/27 01:15:15;;;;;;;15.67;8.83;;;;;;;-145.18;100.00;60484.78;5051637;28;20424;-70
2022/05/27 01:18:11;;;;;;;16.30;7.30;;;;;;;-145.18;100.00;60484.78;5048592;28;20021;-70
2022/05/27 01:21:00;;;;;;;13.90;8.27;;;;;;;-145.18;100.00;60484.78;5048069;28;20099;-70
2022/05/27 01:23:36;;;;;;;16.83;8.50;;;;;;;-145.18;100.00;60484.78;5043383;28;20021;-70
2022/05/27 01:26:30;;;;;;;15.10;8.93;;;;;;;-145.18;100.00;60484.78;5048442;28;20021;-70
2022/05/27 01:29:08;;;;;;;18.93;9.03;;;;;;;-145.18;100.00;60484.78;5047372;28;20039;-70
2022/05/27 01:31:40;;;;;;;11.70;6.13;;;;;;;-145.18;100.00;60484.78;5041576;28;20033;-69
2022/05/27 01:34:32;;;;;;;13.67;8.13;;;;;;;-145.18;100.00;60484.78;5033405;28;20473;-69
2022/05/27 01:37:07;;;;;;;16.40;8.38;;;;;;;-145.18;100.00;60484.78;5032847;28;20037;-69
2022/05/27 01:39:45;;;;;;;15.33;8.67;;;;;;;-145.18;100.00;60484.78;5031572;28;20033;-69
2022/05/27 01:42:17;;;;;;;12.07;6.60;;;;;;;-145.18;100.00;60484.78;5043169;28;20039;-69
2022/05/27 01:44:49;;;;;;;13.37;7.93;;;;;;;-145.18;100.00;60484.78;5028337;28;20029;-69
2022/05/27 01:47:27;;;;;;;13.57;7.97;;;;;;;-145.18;100.00;60484.78;5039849;28;20546;-69
2022/05/27 01:50:03;;;;;;;11.73;7.03;;;;;;;-145.18;100.00;60484.78;5048199;28;20028;-69
2022/05/27 01:52:36;;;;;;;12.03;7.47;;;;;;;-145.18;100.00;60484.78;5039210;28;20045;-69
2022/05/27 01:55:10;;;;;;;12.13;7.33;;;;;;;-145.18;100.00;60484.78;5035645;28;20028;-69
2022/05/27 01:57:45;;;;;;;11.67;6.87;;;;;;;-145.18;100.00;60484.78;5036719;28;20028;-70
2022/05/27 02:00:20;;;;;;;10.37;5.00;;;;;;;-145.18;100.00;60484.78;5036312;28;20061;-70
2022/05/27 02:02:53;;;;;;;9.63;6.30;;;;;;;-145.18;100.00;60484.78;5035130;28;20045;-69
2022/05/27 02:05:25;;;;;;;11.87;6.90;;;;;;;-145.18;100.00;60484.78;5037513;28;20084;-69
2022/05/27 02:07:59;;;;;;;11.13;6.03;;;;;;;-145.18;100.00;60484.78;5035600;28;20566;-69
2022/05/27 02:10:41;;;;;;;12.97;7.03;;;;;;;-145.18;100.00;60484.78;5037173;28;20067;-69
2022/05/27 02:13:12;;;;;;;11.90;6.37;;;;;;;-145.18;100.00;60484.78;5032485;28;20029;-69
2022/05/27 02:15:42;;;;;;;10.87;6.30;;;;;;;-145.18;100.00;60484.78;5033615;28;22038;-69
2022/05/27 02:18:22;;;;;;;11.67;6.87;;;;;;;-145.18;100.00;60484.78;5040919;28;20424;-68
2022/05/27 02:20:58;;;;;;;13.07;6.70;;;;;;;-145.18;100.00;60484.78;5031434;28;20029;-69
2022/05/27 02:23:37;;;;;;;13.50;6.53;;;;;;;-145.18;100.00;60484.78;5039705;28;20067;-70
2022/05/27 02:26:16;;;;;;;12.77;7.73;;;;;;;-145.18;100.00;60484.78;5034074;28;20013;-69
2022/05/27 02:28:48;;;;;;;14.37;7.47;;;;;;;-145.18;100.00;60484.78;5041854;28;20031;-69
2022/05/27 02:31:22;;;;;;;15.60;8.60;;;;;;;-145.18;100.00;60484.78;5039194;28;20060;-69
2022/05/27 02:36:55;;;;;;;17.57;8.93;;;;;;;-145.18;100.00;60484.78;5040364;28;20401;-69
2022/05/27 02:39:21;;;;;;;16.57;8.40;;;;;;;-145.18;100.00;60484.78;5045327;28;20024;-69
2022/05/27 02:41:59;;;;;;;15.80;7.90;;;;;;;-145.18;100.00;60484.78;5044684;28;20040;-69
2022/05/27 02:44:34;;;;;;;18.53;8.57;;;;;;;-145.18;100.00;60484.78;5034274;28;20047;-69
2022/05/27 02:47:14;;;;;;;14.83;7.97;;;;;;;-145.18;100.00;60484.78;5033940;28;20025;-69
2022/05/27 02:50:02;;;;;;;22.30;9.87;;;;;;;-145.18;100.00;60484.78;5035172;28;20032;-69
2022/05/27 02:52:35;;;;;;;26.33;10.83;;;;;;;-145.18;100.00;60484.78;5036835;28;20074;-69
2022/05/27 02:55:05;;;;;;;20.67;11.40;;;;;;;-145.18;100.00;60484.78;5043770;28;20026;-69
2022/05/27 02:57:38;;;;;;;22.80;11.60;;;;;;;-145.18;100.00;60484.78;5036164;28;20079;-69
2022/05/27 03:00:09;;;;;;;21.70;12.23;;;;;;;-145.18;100.00;60484.78;5037391;28;20374;-69
2022/05/27 03:02:34;;;;;;;26.20;13.27;;;;;;;-145.18;100.00;60484.78;5036212;28;20044;-69
2022/05/27 03:05:01;;;;;;;24.27;13.20;;;;;;;-145.18;100.00;60484.78;5033544;28;20021;-69
2022/05/27 03:07:37;;;;;;;26.60;13.03;;;;;;;-145.18;100.00;60484.78;5035764;28;20022;-69
2022/05/27 03:10:24;;;;;;;31.80;13.13;;;;;;;-145.18;100.00;60484.78;5037439;28;20040;-69
2022/05/27 03:12:55;;;;;;;30.47;13.70;;;;;;;-145.18;100.00;60484.78;5032462;28;20020;-70
2022/05/27 03:15:33;;;;;;;27.23;12.75;;;;;;;-145.18;100.00;60484.78;5027981;28;20094;-69
2022/05/27 03:18:14;;;;;;;36.67;13.63;;;;;;;-145.18;100.00;60484.78;5030291;28;20051;-69
2022/05/27 03:20:44;;;;;;;28.10;12.17;;;;;;;-145.18;100.00;60484.78;5026230;28;20133;-69
2022/05/27 03:23:31;;;;;;;31.27;12.93;;;;;;;-145.18;100.00;60484.78;5028787;28;20048;-69
2022/05/27 03:26:31;;;;;;;32.60;13.77;;;;;;;-145.18;100.00;60484.78;5026503;28;20087;-69
2022/05/27 03:29:11;;;;;;;34.23;14.17;;;;;;;-145.18;100.00;60484.78;5025652;28;20084;-69
2022/05/27 03:31:59;;;;;;;37.43;16.53;;;;;;;-145.18;100.00;60484.78;5037097;28;20076;-69
2022/05/27 03:34:40;;;;;;;37.13;16.23;;;;;;;-145.18;100.00;60484.78;5041258;28;20037;-69
2022/05/27 03:37:16;;;;;;;33.93;15.30;;;;;;;-145.18;100.00;60484.78;5033030;28;20389;-69
2022/05/27 03:39:51;;;;;;;35.60;16.37;;;;;;;-145.18;100.00;60484.78;5034756;28;20033;-69
2022/05/27 03:42:19;;;;;;;31.23;13.93;;;;;;;-145.18;100.00;60484.78;5041601;28;20021;-69
2022/05/27 03:45:16;;;;;;;37.17;15.90;;;;;;;-145.18;100.00;60484.78;5047953;28;20033;-69
2022/05/27 03:47:42;;;;;;;34.20;15.47;;;;;;;-145.18;100.00;60484.78;5043458;28;20508;-69
2022/05/27 03:50:11;;;;;;;34.43;15.33;;;;;;;-145.18;100.00;60484.78;5043232;28;20083;-69
2022/05/27 03:52:40;;;;;;;37.90;16.00;;;;;;;-145.18;100.00;60484.78;5041262;28;20032;-69
2022/05/27 03:55:08;;;;;;;28.27;13.57;;;;;;;-145.18;100.00;60484.78;5044148;28;20048;-69
2022/05/27 03:57:33;;;;;;;30.80;11.83;;;;;;;-145.18;100.00;60484.78;5051643;28;20393;-69
2022/05/27 03:59:59;;;;;;;31.63;11.00;;;;;;;-145.18;100.00;60484.78;5037424;28;20036;-69
2022/05/27 04:02:24;;;;;;;29.57;11.70;;;;;;;-145.18;100.00;60484.78;5036372;28;20037;-69
2022/05/27 04:04:49;;;;;;;35.13;12.33;;;;;;;-145.18;100.00;60484.78;5042347;28;20108;-69
2022/05/27 04:07:15;;;;;;;34.80;11.50;;;;;;;-145.18;100.00;60484.78;5039248;28;20132;-69
2022/05/27 04:09:41;;;;;;;30.13;9.33;;;;;;;-145.18;100.00;60484.78;5032219;28;20039;-69
2022/05/27 04:12:07;;;;;;;25.77;9.60;;;;;;;-145.18;100.00;60484.78;5030932;28;20033;-69
2022/05/27 04:14:33;;;;;;;28.97;10.33;;;;;;;-145.18;100.00;60484.78;5043158;28;20057;-69
2022/05/27 04:19:42;;;;;;;24.60;9.00;;;;;;;-145.18;100.00;60484.78;5035117;28;20036;-69
2022/05/27 04:22:07;;;;;;;24.70;8.60;;;;;;;-145.18;100.00;60484.78;5036051;28;20033;-69
2022/05/27 04:24:33;;;;;;;24.17;8.90;;;;;;;-145.18;100.00;60484.78;5035300;28;20104;-69
2022/05/27 04:26:59;;;;;;;18.27;8.37;;;;;;;-145.18;100.00;60484.78;5032632;28;20367;-69
2022/05/27 04:29:24;;;;;;;22.97;7.80;;;;;;;-145.18;100.00;60484.78;5032441;28;20425;-69
2022/05/27 04:31:50;;;;;;;21.00;7.60;;;;;;;-145.18;100.00;60484.78;5039619;28;20029;-69
2022/05/27 04:34:15;;;;;;;16.63;6.80;;;;;;;-145.18;100.00;60484.78;5033670;28;20037;-69
2022/05/27 04:36:40;;;;;;;19.20;7.07;;;;;;;-145.18;100.00;60484.78;5033371;28;20065;-69
2022/05/27 04:39:06;;;;;;;18.07;7.57;;;;;;;-145.18;100.00;60484.78;5035395;28;20470;-69
2022/05/27 04:41:31;;;;;;;14.40;6.90;;;;;;;-145.18;100.00;60484.78;5033627;28;20037;-69
2022/05/27 04:43:58;;;;;;;15.23;6.63;;;;;;;-145.18;100.00;60484.78;5030934;28;20621;-69
2022/05/27 04:46:24;;;;;;;21.43;7.03;;;;;;;-145.18;100.00;60484.78;5032114;28;20033;-69
2022/05/27 04:48:49;;;;;;;19.87;7.70;;;;;;;-145.18;100.00;60484.78;5033459;28;20040;-69
2022/05/27 04:51:15;;;;;;;17.00;6.13;;;;;;;-145.18;100.00;60484.78;5040343;28;20504;-69
2022/05/27 04:53:40;;;;;;;17.67;6.90;;;;;;;-145.18;100.00;60484.78;5045136;28;20094;-69
2022/05/27 04:56:09;;;;;;;12.80;6.43;;;;;;;-145.18;100.00;60484.78;5034969;28;20033;-69
2022/05/27 04:58:34;;;;;;;14.40;6.57;;;;;;;-145.18;100.00;60484.78;5038225;28;20037;-69
2022/05/27 05:01:00;;;;;;;20.00;7.20;;;;;;;-145.18;100.00;60484.78;5031748;28;20033;-69
2022/05/27 05:03:25;;;;;;;19.67;7.03;;;;;;;-145.18;100.00;60484.78;5049125;28;20060;-68
2022/05/27 05:05:51;;;;;;;18.77;6.47;;;;;;;-145.18;100.00;60484.78;5034291;28;20024;-69
2022/05/27 05:08:22;;;;;;;16.97;6.63;;;;;;;-145.18;100.00;60484.78;5033991;28;20036;-69
2022/05/27 05:10:47;;;;;;;17.65;6.38;;;;;;;-145.18;100.00;60484.78;5041526;28;20045;-68
2022/05/27 05:13:13;;;;;;;16.37;5.73;;;;;;;-145.18;100.00;60484.78;5032652;28;20488;-69
2022/05/27 05:15:38;;;;;;;10.63;4.33;;;;;;;-145.18;100.00;60484.78;5045588;28;20358;-69
2022/05/27 05:18:04;;;;;;;15.77;5.23;;;;;;;-145.18;100.00;60484.78;5037887;28;20028;-69
2022/05/27 05:20:31;;;;;;;11.40;3.77;;;;;;;-145.18;100.00;60484.78;5031693;28;20037;-69
2022/05/27 05:22:57;;;;;;;13.50;4.20;;;;;;;-145.18;100.00;60484.78;5039497;28;20037;-69
2022/05/27 05:25:23;;;;;;;14.23;4.60;;;;;;;-145.18;100.00;60484.78;5042735;28;20032;-69
2022/05/27 05:27:49;;;;;;;16.97;3.30;;;;;;;-145.18;100.00;60484.78;5040130;28;20473;-68
2022/05/27 05:30:17;;;;;;;16.17;4.00;;;;;;;-145.18;100.00;60484.78;5046794;28;20025;-69
2022/05/27 05:32:43;;;;;;;13.40;3.90;;;;;;;-145.18;100.00;60484.78;5034836;28;20044;-68
2022/05/27 05:35:11;;;;;;;12.00;3.70;;;;;;;-145.18;100.00;60484.78;5036381;28;20017;-69
2022/05/27 05:37:36;;;;;;;14.67;3.50;;;;;;;-145.18;100.00;60484.78;5031490;28;20072;-68
2022/05/27 05:40:03;;;;;;;11.63;3.80;;;;;;;-145.18;100.00;60484.78;5033163;28;20037;-68
2022/05/27 05:42:28;;;;;;;13.43;4.30;;;;;;;-145.18;100.00;60484.78;5031445;28;20412;-68
2022/05/27 05:44:55;;;;;;;12.07;3.43;;;;;;;-145.18;100.00;60484.78;5036242;28;20052;-68
2022/05/27 05:47:20;;;;;;;15.50;4.53;;;;;;;-145.18;100.00;60484.78;5039908;28;20082;-68
2022/05/27 05:49:46;;;;;;;10.67;2.77;;;;;;;-145.18;100.00;60484.78;5034688;28;20045;-69
2022/05/27 05:52:11;;;;;;;10.57;3.17;;;;;;;-145.18;100.00;60484.78;5041508;28;20090;-68
2022/05/27 05:54:37;;;;;;;15.53;3.50;;;;;;;-145.18;100.00;60484.78;5037420;28;20024;-68
2022/05/27 05:57:03;;;;;;;14.73;3.17;;;;;;;-145.18;100.00;60484.78;5036539;28;20029;-68
2022/05/27 05:59:31;;;;;;;14.00;3.00;;;;;;;-145.18;100.00;60484.78;5031028;28;20017;-69
2022/05/27 06:01:57;;;;;;;16.67;3.40;;;;;;;-145.18;100.00;60484.78;5030124;28;20117;-69
2022/05/27 06:04:23;;;;;;;12.90;2.90;;;;;;;-145.18;100.00;60484.78;5039961;28;20021;-68
2022/05/27 06:06:48;;;;;;;14.30;2.60;;;;;;;-145.18;100.00;60484.78;5033062;28;20972;-68
2022/05/27 06:09:14;;;;;;;9.67;3.10;;;;;;;-145.18;100.00;60484.78;5035696;28;20044;-68
2022/05/27 06:11:40;;;;;;;10.93;2.65;;;;;;;-145.18;100.00;60484.78;5036654;28;20033;-68
2022/05/27 06:14:06;;;;;;;10.88;2.28;;;;;;;-145.18;100.00;60484.78;5034812;28;20381;-68
2022/05/27 06:16:32;;;;;;;10.25;2.58;;;;;;;-145.18;100.00;60484.78;5033709;28;20037;-68
2022/05/27 06:18:58;;;;;;;14.30;2.95;;;;;;;-145.18;100.00;60484.78;5032780;28;20089;-68
2022/05/27 06:21:25;;;;;;;10.50;2.88;;;;;;;-145.18;100.00;60484.78;5036474;28;20029;-68
2022/05/27 06:23:50;;;;;;;11.43;2.60;;;;;;;-145.18;100.00;60484.78;5050318;28;20029;-68
2022/05/27 06:26:15;;;;;;;11.75;2.85;;;;;;;-145.18;100.00;60484.78;5044637;28;20469;-68
2022/05/27 06:34:24;;;;;;;11.93;2.38;;;;;;;-145.18;100.00;60484.78;5048529;28;20075;-68
2022/05/27 06:36:53;;;;;;;8.55;2.00;;;;;;;-145.18;100.00;60484.78;5035582;28;20382;-69
2022/05/27 06:39:19;;;;;;;11.15;1.90;;;;;;;-145.18;100.00;60484.78;5035412;28;20036;-69
2022/05/27 06:41:45;;;;;;;13.23;2.33;;;;;;;-145.18;100.00;60484.78;5035045;28;20029;-69
2022/05/27 06:44:10;;;;;;;10.95;2.67;;;;;;;-145.18;100.00;60484.78;5052790;28;20087;-69
2022/05/27 06:46:36;;;;;;;8.00;2.20;;;;;;;-145.18;100.00;60484.78;5046505;28;20027;-69
2022/05/27 06:49:03;;;;;;;10.23;2.15;;;;;;;-145.18;100.00;60484.78;5034485;28;20589;-69
2022/05/27 06:51:29;;;;;;;11.95;2.38;;;;;;;-145.18;100.00;60484.78;5049765;28;20021;-68
2022/05/27 06:53:55;;;;;;;15.60;3.20;;;;;;;-145.18;100.00;60484.78;5051593;28;20036;-68
2022/05/27 06:56:21;;;;;;;13.98;3.13;;;;;;;-145.18;100.00;60484.78;5049947;28;20445;-68
2022/05/27 06:58:47;;;;;;;11.80;2.45;;;;;;;-145.18;100.00;60484.78;5050169;28;20175;-68
2022/05/27 07:01:12;;;;;;;9.40;2.17;;;;;;;-145.18;100.00;60484.78;5046650;28;21015;-68
2022/05/27 07:03:39;;;;;;;10.02;2.30;;;;;;;-145.18;100.00;60484.78;5049997;28;20055;-68
2022/05/27 07:06:06;;;;;;;9.07;2.20;;;;;;;-145.18;100.00;60484.78;5037008;28;20029;-69
2022/05/27 07:08:31;;;;;;;9.43;2.30;;;;;;;-145.18;100.00;60484.78;5044472;28;20544;-69
2022/05/27 07:10:57;;;;;;;8.95;1.88;;;;;;;-145.18;100.00;60484.78;5046443;28;20171;-69
2022/05/27 07:13:23;;;;;;;10.63;2.10;;;;;;;-145.18;100.00;60484.78;5053215;28;20123;-68
2022/05/27 07:15:48;;;;;;;13.77;2.70;;;;;;;-145.18;100.00;60484.78;5047177;28;20125;-69
2022/05/27 07:18:13;;;;;;;11.82;2.50;;;;;;;-145.18;100.00;60484.78;5052678;28;20029;-68
2022/05/27 07:20:41;;;;;;;8.95;2.35;;;;;;;-145.18;100.00;60484.78;5039021;28;20465;-69
2022/05/27 07:23:06;;;;;;;11.50;2.17;;;;;;;-145.18;100.00;60484.78;5049741;28;20492;-68
2022/05/27 07:25:35;;;;;;;13.15;2.30;;;;;;;-145.18;100.00;60484.78;5048251;28;20025;-68
2022/05/27 07:28:06;;;;;;;8.15;1.98;;;;;;;-145.18;100.00;60484.78;5038393;28;20040;-68
2022/05/27 07:30:32;;;;;;;10.93;2.00;;;;;;;-145.18;100.00;60484.78;5039542;28;20033;-68
2022/05/27 07:32:58;;;;;;;12.07;2.55;;;;;;;-145.18;100.00;60484.78;5048969;28;20142;-69
2022/05/27 07:35:23;;;;;;;9.98;2.42;;;;;;;-145.18;100.00;60484.78;5043567;28;20068;-69
2022/05/27 07:37:49;;;;;;;14.70;2.92;;;;;;;-145.18;100.00;60484.78;5044005;28;20033;-68
2022/05/27 07:40:15;;;;;;;9.02;1.70;;;;;;;-145.18;100.00;60484.78;5046542;28;20396;-69
2022/05/27 07:42:41;;;;;;;9.63;1.85;;;;;;;-145.18;100.00;60484.78;5047924;28;20067;-69
2022/05/27 07:45:09;;;;;;;6.97;1.50;;;;;;;-145.18;100.00;60484.78;5042362;28;20477;-69
2022/05/27 07:47:34;;;;;;;12.73;2.22;;;;;;;-145.18;100.00;60484.78;5033164;28;20032;-69
2022/05/27 07:50:00;;;;;;;8.95;1.98;;;;;;;-145.18;100.00;60484.78;5035139;28;20025;-68
2022/05/27 07:52:26;;;;;;;11.13;2.00;;;;;;;-145.18;100.00;60484.78;5044488;28;20191;-69
2022/05/27 07:54:54;;;;;;;8.45;1.80;;;;;;;-145.18;100.00;60484.78;5050473;28;20028;-69
2022/05/27 07:57:25;;;;;;;15.32;2.40;;;;;;;-145.18;100.00;60484.78;5043632;28;20044;-68
2022/05/27 08:00:01;;;;;;;;;;;;;;;-145.18;100.00;60484.78;5040532;28;20033;-68
2022/05/27 08:02:26;;;;;;;11.32;2.25;;;;;;;-145.18;100.00;60484.78;5041709;28;19917;-68
2022/05/27 08:04:52;;;;;;;10.25;1.98;;;;;;;-145.18;100.00;60484.78;5051528;28;20040;-68
2022/05/27 08:07:18;;;;;;;9.63;1.88;;;;;;;-145.18;100.00;60484.78;5048621;28;20032;-68
2022/05/27 08:09:43;;;;;;;8.48;2.05;;;;;;;-145.18;100.00;60484.78;5041354;28;20026;-68
2022/05/27 08:12:09;;;;;;;10.30;2.20;;;;;;;-145.18;100.00;60484.78;5043621;28;20580;-68
2022/05/27 08:14:34;;;;;;;12.18;2.00;;;;;;;-145.18;100.00;60484.78;5044369;28;20059;-68
2022/05/27 08:17:00;;;;;;;11.98;2.20;;;;;;;-145.18;100.00;60484.78;5031734;28;20029;-68
2022/05/27 08:19:26;;;;;;;12.23;2.10;;;;;;;-145.18;100.00;60484.78;5040056;28;20512;-68
2022/05/27 08:21:51;;;;;;;9.18;2.60;;;;;;;-145.18;100.00;60484.78;5037752;28;20029;-68
2022/05/27 08:24:17;;;;;;;10.07;1.73;;;;;;;-145.18;100.00;60484.78;5039551;28;20095;-68
2022/05/27 08:26:43;;;;;;;10.95;2.33;;;;;;;-145.18;100.00;60484.78;5051734;28;20111;-68
2022/05/27 08:29:09;;;;;;;12.63;2.35;;;;;;;-145.18;100.00;60484.78;5038062;28;20029;-68
2022/05/27 08:31:35;;;;;;;9.13;2.10;;;;;;;-145.18;100.00;60484.78;5039568;28;20083;-68
2022/05/27 08:39:30;;;;;;;15.20;2.40;;;;;;;-145.18;100.00;60484.78;5037399;28;20085;-68
2022/05/27 08:42:03;;;;;;;10.70;1.95;;;;;;;-145.18;100.00;60484.78;5041717;28;20124;-68
2022/05/27 08:44:43;;;;;;;12.40;2.17;;;;;;;-145.18;100.00;60484.78;5040040;28;20025;-69
2022/05/27 08:47:17;;;;;;;9.95;2.00;;;;;;;-145.18;100.00;60484.78;5049661;28;20063;-69
2022/05/27 08:49:47;;;;;;;9.13;2.13;;;;;;;-145.18;100.00;60484.78;5049861;28;20039;-69
2022/05/27 08:52:15;;;;;;;10.73;2.00;;;;;;;-145.18;100.00;60484.78;5036282;28;20033;-69
2022/05/27 08:55:03;;;;;;;8.05;2.10;;;;;;;-145.18;100.00;60484.78;5037408;28;20029;-68
2022/05/27 09:00:20;;;;;;;11.98;2.53;;;;;;;-145.18;100.00;60484.78;5032526;28;20083;-69
2022/05/27 09:02:55;;;;;;;9.60;1.80;;;;;;;-145.18;100.00;60484.78;5043006;28;20408;-69
2022/05/27 09:05:54;;;;;;;11.60;2.40;;;;;;;-145.18;100.00;60484.78;5036502;28;20039;-69
2022/05/27 09:08:25;;;;;;;8.45;2.00;;;;;;;-145.18;100.00;60484.78;5041709;28;20029;-68
2022/05/27 09:11:12;;;;;;;6.45;1.83;;;;;;;-145.18;100.00;60484.78;5034944;28;20033;-69
2022/05/27 09:13:56;;;;;;;9.40;2.00;;;;;;;-145.18;100.00;60484.78;5031663;28;20025;-68
2022/05/27 09:16:37;;;;;;;8.45;1.83;;;;;;;-145.18;100.00;60484.78;5046280;28;20021;-68
2022/05/27 09:19:30;;;;;;;6.53;1.70;;;;;;;-145.18;100.00;60484.78;5044404;28;20044;-68
2022/05/27 09:22:25;;;;;;;15.02;2.40;;;;;;;-145.18;100.00;60484.78;5043483;28;20037;-68
2022/05/27 09:25:21;;;;;;;12.45;2.50;;;;;;;-145.18;100.00;60484.78;5038385;28;20116;-68
2022/05/27 09:28:09;;;;;;;8.50;2.10;;;;;;;-145.18;100.00;60484.78;5036349;28;20041;-68
2022/05/27 09:30:36;;;;;;;7.22;1.73;;;;;;;-145.18;100.00;60484.78;5028158;28;20060;-68
2022/05/27 09:33:05;;;;;;;22.55;2.40;;;;;;;-145.18;100.00;60484.78;5030157;28;20037;-68
2022/05/27 09:35:32;;;;;;;10.52;2.20;;;;;;;-145.18;100.00;60484.78;5029195;28;20499;-68
2022/05/27 09:38:01;;;;;;;8.90;1.88;;;;;;;-145.18;100.00;60484.78;5037063;28;20025;-69
2022/05/27 09:40:42;;;;;;;9.10;1.85;;;;;;;-145.18;100.00;60484.78;5028731;28;20087;-68
2022/05/27 09:43:10;;;;;;;12.68;2.10;;;;;;;-145.18;100.00;60484.78;5033362;28;20067;-68
2022/05/27 09:45:36;;;;;;;11.52;2.30;;;;;;;-145.18;100.00;60484.78;5039792;28;20117;-68
2022/05/27 09:48:06;;;;;;;9.05;2.00;;;;;;;-145.18;100.00;60484.78;5041382;28;20112;-68
2022/05/27 09:50:43;;;;;;;7.30;1.88;;;;;;;-145.18;100.00;60484.78;5038393;28;20056;-69
2022/05/27 09:53:18;;;;;;;8.90;1.90;;;;;;;-145.18;100.00;60484.78;5037350;28;20044;-68
2022/05/27 09:56:02;;;;;;;10.52;2.05;;;;;;;-145.18;100.00;60484.78;5032361;28;20393;-68
2022/05/27 09:58:37;;;;;;;10.40;2.03;;;;;;;-145.18;100.00;60484.78;5034679;28;20051;-69
2022/05/27 10:01:27;;;;;;;13.55;2.40;;;;;;;-145.18;100.00;60484.78;5038504;28;20469;-68
2022/05/27 10:04:06;;;;;;;11.77;2.05;;;;;;;-145.18;100.00;60484.78;5031933;28;20417;-68
2022/05/27 10:06:34;;;;;;;6.32;1.65;;;;;;;-145.18;100.00;60484.78;5031943;28;20107;-69
2022/05/27 10:09:08;;;;;;;9.25;1.88;;;;;;;-145.18;100.00;60484.78;5033384;28;20394;-68
2022/05/27 10:11:35;;;;;;;11.15;2.00;;;;;;;-145.18;100.00;60484.78;5041391;28;20051;-68
2022/05/27 10:14:33;;;;;;;10.00;1.75;;;;;;;-145.18;100.00;60484.78;5040670;28;20033;-68
2022/05/27 10:17:13;;;;;;;7.90;2.03;;;;;;;-145.18;100.00;60484.78;5034366;28;20135;-68
2022/05/27 10:19:42;;;;;;;7.15;1.63;;;;;;;-145.18;100.00;60484.78;5038259;28;20107;-68
2022/05/27 10:22:25;;;;;;;6.72;1.70;;;;;;;-145.18;100.00;60484.78;5036788;28;20449;-68
2022/05/27 10:25:01;;;;;;;9.15;2.58;;;;;;;-145.18;100.00;60484.78;5029679;28;20059;-68
2022/05/27 10:27:39;;;;;;;10.25;1.70;;;;;;;-145.18;100.00;60484.78;5038179;28;20029;-68
2022/05/27 10:30:25;;;;;;;10.45;2.10;;;;;;;-145.18;100.00;60484.78;5032239;28;20033;-68
2022/05/27 10:32:52;;;;;;;9.07;1.60;;;;;;;-145.18;100.00;60484.78;5045438;28;20499;-68
2022/05/27 10:35:21;;;;;;;10.18;2.00;;;;;;;-145.18;100.00;60484.78;5032308;28;20037;-68
2022/05/27 10:38:26;;;;;;;10.13;2.00;;;;;;;-145.18;100.00;60484.78;5035326;28;20041;-68
2022/05/27 10:41:07;;;;;;;6.30;1.70;;;;;;;-145.18;100.00;60484.78;5033032;28;20091;-69
2022/05/27 10:44:07;;;;;;;7.28;1.80;;;;;;;-145.18;100.00;60484.78;5034863;28;20110;-69
2022/05/27 10:46:54;;;;;;;7.70;1.50;;;;;;;-145.18;100.00;60484.78;5037355;28;20099;-68
2022/05/27 10:49:57;;;;;;;7.32;1.65;;;;;;;-145.18;100.00;60484.78;5038021;28;20076;-68
2022/05/27 10:52:34;;;;;;;9.65;2.08;;;;;;;-145.18;100.00;60484.78;5037603;28;20429;-68
2022/05/27 10:55:19;;;;;;;9.15;2.35;;;;;;;-145.18;100.00;60484.78;5035914;28;20392;-68
2022/05/27 11:04:20;;;;;;;7.20;1.67;;;;;;;-145.18;100.00;60484.78;5036324;28;20166;-68
2022/05/27 11:06:49;;;;;;;7.68;1.65;;;;;;;-145.18;100.00;60484.78;5033697;28;20072;-68
2022/05/27 11:09:41;;;;;;;4.20;1.27;;;;;;;-145.18;100.00;60484.78;5032687;28;20044;-68
2022/05/27 11:15:10;;;;;;;11.93;1.80;;;;;;;-145.18;100.00;60484.78;5035931;28;20040;-68
2022/05/27 11:15:29;;;;;;;7.15;1.60;;;;;;;-145.18;100.00;60484.78;5040668;28;20152;-68
2022/05/27 11:18:07;;;;;;;8.23;1.70;;;;;;;-145.18;100.00;60484.78;5048475;28;20033;-68
2022/05/27 11:20:35;;;;;;;6.90;1.40;;;;;;;-145.18;100.00;60484.78;5033143;28;20041;-68
2022/05/27 11:23:15;;;;;;;8.00;1.73;;;;;;;-145.18;100.00;60484.78;5033403;28;20037;-68
2022/05/27 11:26:08;;;;;;;9.80;1.88;;;;;;;-145.18;100.00;60484.78;5035384;28;20436;-68
2022/05/27 11:28:52;;;;;;;6.63;1.52;;;;;;;-145.18;100.00;60484.78;5032657;28;20071;-68
2022/05/27 11:31:30;;;;;;;10.13;2.10;;;;;;;-145.18;100.00;60484.78;5047324;28;20032;-68
2022/05/27 11:34:18;;;;;;;7.40;1.63;;;;;;;-145.18;100.00;60484.78;5051232;28;20028;-68
2022/05/27 11:36:59;;;;;;;7.35;1.45;;;;;;;-145.18;100.00;60484.78;5037143;28;20454;-68
2022/05/27 11:39:49;;;;;;;8.67;2.37;;;;;;;-145.18;100.00;60484.78;5033041;28;20036;-68
2022/05/27 11:42:44;;;;;;;7.20;1.80;;;;;;;-145.18;100.00;60484.78;5042914;28;20294;-68
2022/05/27 11:45:26;;;;;;;10.10;2.05;;;;;;;-145.18;100.00;60484.78;5034796;28;20469;-68
2022/05/27 11:48:08;;;;;;;9.10;1.80;;;;;;;-145.18;100.00;60484.78;5035715;28;20052;-68
2022/05/27 11:51:05;;;;;;;5.90;1.63;;;;;;;-145.18;100.00;60484.78;5032796;28;20048;-68